»·PEaware :: N520MJ KSAN-KVGT

N520MJ :: KSAN-KVGT

FLIGHT INFORMATION

Flight Status: Arrived
Operator: Privately registered:
United States
More flights under this callsign
Pilot: Manuel P. (9695)
Aircraft: Unknown
(HA4T)
More flights by this aircraft type
Origin: KSAN San Diego Intl-Lindbergh
United States
Destination: KVGT North Las Vegas
United States
More flights between these airports :: More routes between these airports
Route: PEBLE6 SXC LAX DAG CLARR2
File this flight plan on PilotEdge
Remarks:
Altitude:
(Current/Filed)
41,000ft
Speed:
(Current/Filed)
400kts
Departed: 15-Jul-17 09:35 AM
Arrived: 15-Jul-17 10:27 AM
Distance/Time
Traveled:
231nm/0:52
Distance/Time
To Go:
Arrived

Flight Plot

Page will automatically refresh every two minutes.

Flight plan parsing failed; only flown route is shown


Map Options




Map Legend


Flown Route
Filed Route
Departure Airport
Arrival Airport
Navaid (VOR, NDB)
Fix

Horizontal Profiles

Position Reports

Time Latitude Longitude Heading Altitude Ground
Speed
15-Jul-17 09:21 32.732389 -117.176697 194 23ft 0kts
15-Jul-17 09:25 32.732389 -117.176697 194 23ft 0kts
15-Jul-17 09:26 32.732389 -117.176697 194 23ft 0kts
15-Jul-17 09:27 32.732389 -117.176697 194 23ft 0kts
15-Jul-17 09:28 32.732389 -117.176697 194 23ft 0kts
15-Jul-17 09:29 32.732389 -117.176697 194 23ft 0kts
15-Jul-17 09:30 32.732389 -117.176697 194 23ft 0kts
15-Jul-17 09:31 32.732389 -117.176697 194 23ft 0kts
15-Jul-17 09:32 32.732389 -117.176697 194 23ft 0kts
15-Jul-17 09:33 32.732385 -117.176699 199 23ft 0kts
15-Jul-17 09:34 32.732324 -117.177039 242 23ft 1kts
15-Jul-17 09:35 32.731757 -117.177069 131 23ft 0kts
15-Jul-17 09:36 32.731512 -117.176646 123 23ft 4kts
15-Jul-17 09:37 32.730986 -117.175585 131 23ft 5kts
15-Jul-17 09:38 32.733291 -117.188430 284 37ft 165kts
15-Jul-17 09:39 32.763495 -117.245939 304 2334ft 226kts
15-Jul-17 09:40 32.799896 -117.311127 304 4415ft 242kts
15-Jul-17 09:41 32.841599 -117.383314 304 7166ft 274kts
15-Jul-17 09:42 32.888983 -117.457221 324 9721ft 294kts
15-Jul-17 09:43 32.960222 -117.509255 318 11792ft 331kts
15-Jul-17 09:44 33.028794 -117.598143 298 14780ft 415kts
15-Jul-17 09:45 33.096940 -117.705352 306 14931ft 379kts
15-Jul-17 09:46 33.159674 -117.801803 306 14937ft 371kts
15-Jul-17 09:47 33.207285 -117.912137 290 17567ft 389kts
15-Jul-17 09:48 33.248129 -118.034970 290 20690ft 411kts
15-Jul-17 09:49 33.291961 -118.167458 289 22940ft 464kts
15-Jul-17 09:50 33.374392 -118.268980 353 25468ft 472kts
15-Jul-17 09:51 33.502431 -118.273420 342 30765ft 485kts
15-Jul-17 09:52 33.634183 -118.321465 341 33491ft 510kts
15-Jul-17 09:53 33.769679 -118.371473 341 35907ft 513kts
15-Jul-17 09:54 33.907086 -118.402889 12 37518ft 517kts
15-Jul-17 09:55 34.011778 -118.294105 57 39006ft 516kts
15-Jul-17 09:56 34.092070 -118.151986 57 40314ft 513kts
15-Jul-17 09:57 34.170729 -118.012540 57 41014ft 512kts
15-Jul-17 09:58 34.250364 -117.870855 57 41097ft 517kts
15-Jul-17 09:59 34.331032 -117.726746 57 41101ft 518kts
15-Jul-17 10:00 34.412001 -117.583834 56 41101ft 519kts
15-Jul-17 10:01 34.494371 -117.440746 56 41102ft 519kts
15-Jul-17 10:02 34.574511 -117.298656 59 40769ft 501kts
15-Jul-17 10:03 34.649091 -117.160640 58 38789ft 499kts
15-Jul-17 10:04 34.726874 -117.016988 58 36871ft 519kts
15-Jul-17 10:05 34.806493 -116.869285 58 34930ft 527kts
15-Jul-17 10:06 34.886905 -116.719494 58 32864ft 534kts
15-Jul-17 10:07 34.969036 -116.569291 48 30645ft 542kts
15-Jul-17 10:08 35.068843 -116.445743 47 26854ft 490kts
15-Jul-17 10:09 35.155804 -116.336968 48 24101ft 455kts
15-Jul-17 10:10 35.242375 -116.228428 48 22569ft 425kts
15-Jul-17 10:11 35.325179 -116.124218 48 20120ft 437kts
15-Jul-17 10:12 35.412176 -116.014476 47 17644ft 460kts
15-Jul-17 10:13 35.494815 -115.909845 47 15105ft 393kts
15-Jul-17 10:14 35.566907 -115.818303 46 13052ft 362kts
15-Jul-17 10:15 35.635681 -115.730772 46 13056ft 382kts
15-Jul-17 10:16 35.713627 -115.631235 46 13036ft 413kts
15-Jul-17 10:17 35.802806 -115.551132 22 13032ft 375kts
15-Jul-17 10:18 35.877446 -115.513725 22 12969ft 322kts
15-Jul-17 10:19 35.952487 -115.472821 33 12985ft 271kts
15-Jul-17 10:20 36.012348 -115.425558 33 12983ft 258kts
15-Jul-17 10:21 36.092810 -115.397694 1 12490ft 293kts
15-Jul-17 10:22 36.160476 -115.399503 352 11002ft 291kts
15-Jul-17 10:23 36.236021 -115.409600 351 10034ft 266kts
15-Jul-17 10:24 36.310089 -115.420593 357 8035ft 282kts
15-Jul-17 10:25 36.353895 -115.351124 74 5631ft 278kts
15-Jul-17 10:26 36.344771 -115.276406 161 4816ft 221kts
15-Jul-17 10:27 36.293769 -115.253907 146 4504ft 166kts
15-Jul-17 10:28 36.258268 -115.237313 172 3535ft 139kts
15-Jul-17 10:29 36.224554 -115.215352 134 2549ft 138kts
15-Jul-17 10:30 36.206066 -115.191809 133 2211ft 18kts
15-Jul-17 10:31 36.205060 -115.191372 233 2211ft 0kts
15-Jul-17 10:32 36.205032 -115.191439 251 2211ft 0kts
15-Jul-17 10:33 36.206512 -115.193504 313 2211ft 13kts
15-Jul-17 10:34 36.209653 -115.197489 314 2211ft 18kts
15-Jul-17 10:35 36.209828 -115.199066 223 2211ft 3kts
15-Jul-17 10:36 36.209885 -115.199829 224 2211ft 0kts
15-Jul-17 10:37 36.209885 -115.199829 224 2211ft 0kts
15-Jul-17 10:38 36.209885 -115.199829 224 2211ft 0kts
15-Jul-17 10:39 36.209885 -115.199829 224 2211ft 0kts
15-Jul-17 10:40 36.209885 -115.199829 224 2211ft 0kts
15-Jul-17 10:41 36.209885 -115.199829 224 2211ft 0kts
15-Jul-17 10:42 36.209885 -115.199829 224 2211ft 0kts
15-Jul-17 10:43 36.209885 -115.199829 224 2211ft 0kts
15-Jul-17 10:44 36.209885 -115.199829 224 2211ft 0kts

Navigation Log

Ident Type
Flight plan parsing failed, navigation log unavailable